Time;durP1;ratioP1;P1;durP2;ratioP2;P2;SDS_P1;SDS_P2;PMS_P1;PMS_P2;Temp;Humidity;BMP_temperature;BMP_pressure;BME280_temperature;BME280_humidity;BME280_pressure;Samples;Min_cycle;Max_cycle;Signal;HPM_P1;HPM_P2
2022/11/16 00:01:16;;;;;;;15.75;14.02;;;;;;;10.07;100.00;99701.84;4951566;28;20050;-65
2022/11/16 00:03:42;;;;;;;15.57;13.98;;;;;;;10.08;100.00;99710.50;4969571;28;20041;-65
2022/11/16 00:06:09;;;;;;;15.77;14.23;;;;;;;10.08;100.00;99700.16;4963445;28;20078;-65
2022/11/16 00:08:37;;;;;;;17.02;15.32;;;;;;;10.08;100.00;99713.97;4979548;28;20030;-64
2022/11/16 00:11:12;;;;;;;19.23;15.10;;;;;;;10.08;100.00;99715.69;4949624;28;20054;-65
2022/11/16 00:13:38;;;;;;;18.05;16.25;;;;;;;10.06;100.00;99691.47;4957862;28;20034;-65
2022/11/16 00:16:05;;;;;;;17.73;15.95;;;;;;;10.06;100.00;99697.53;4949554;28;20019;-65
2022/11/16 00:18:31;;;;;;;17.25;15.48;;;;;;;10.06;100.00;99710.47;4949816;28;20039;-65
2022/11/16 00:20:56;;;;;;;18.23;16.40;;;;;;;10.07;100.00;99714.81;4957689;28;20114;-65
2022/11/16 00:23:22;;;;;;;20.25;16.33;;;;;;;10.05;100.00;99713.94;4963838;28;20071;-65
2022/11/16 00:25:47;;;;;;;18.02;15.98;;;;;;;10.06;100.00;99710.47;4950106;28;20045;-65
2022/11/16 00:28:13;;;;;;;17.23;15.45;;;;;;;10.07;100.00;99712.22;4960220;28;20038;-65
2022/11/16 00:30:39;;;;;;;17.25;15.55;;;;;;;10.08;100.00;99706.19;4949632;28;20050;-65
2022/11/16 00:33:06;;;;;;;18.80;16.88;;;;;;;10.08;100.00;99701.03;4949127;28;20126;-65
2022/11/16 00:35:31;;;;;;;15.98;14.27;;;;;;;10.08;100.00;99711.38;4949443;28;20031;-65
2022/11/16 00:37:56;;;;;;;18.17;15.82;;;;;;;10.10;100.00;99714.00;4949000;28;20490;-65
2022/11/16 00:40:22;;;;;;;17.25;15.05;;;;;;;10.09;100.00;99713.09;4950028;28;20114;-65
2022/11/16 00:42:47;;;;;;;17.17;14.95;;;;;;;10.12;100.00;99711.41;4949563;28;20102;-65
2022/11/16 00:45:13;;;;;;;18.45;16.27;;;;;;;10.12;100.00;99698.47;4972374;28;20062;-65
2022/11/16 00:47:38;;;;;;;17.15;15.35;;;;;;;10.11;100.00;99688.97;4950984;28;20567;-65
2022/11/16 00:50:04;;;;;;;18.35;15.10;;;;;;;10.11;100.00;99695.00;4949511;28;20026;-65
2022/11/16 00:52:30;;;;;;;18.02;16.08;;;;;;;10.11;100.00;99681.22;4949068;28;20031;-65
2022/11/16 00:54:55;;;;;;;19.40;15.68;;;;;;;10.09;100.00;99679.47;4950629;28;20073;-65
2022/11/16 00:57:21;;;;;;;18.38;16.02;;;;;;;10.11;100.00;99663.94;4949669;28;20105;-65
2022/11/16 00:59:46;;;;;;;20.13;16.15;;;;;;;10.12;100.00;99675.19;4949313;28;20110;-65
2022/11/16 01:02:11;;;;;;;17.48;14.73;;;;;;;10.11;100.00;99681.22;4950416;28;20459;-65
2022/11/16 01:04:37;;;;;;;18.25;15.35;;;;;;;10.11;100.00;99699.34;4950467;28;20082;-65
2022/11/16 01:07:02;;;;;;;17.88;15.98;;;;;;;10.12;100.00;99698.47;4949164;28;20043;-65
2022/11/16 01:09:27;;;;;;;17.45;15.73;;;;;;;10.10;100.00;99682.94;4957798;28;20034;-65
2022/11/16 01:12:08;;;;;;;21.10;15.45;;;;;;;10.11;100.00;99673.47;4953212;28;20037;-65
2022/11/16 01:14:40;;;;;;;19.60;14.85;;;;;;;10.10;100.00;99685.53;4948427;28;20502;-65
2022/11/16 01:17:06;;;;;;;17.95;14.95;;;;;;;10.12;100.00;99690.72;4961485;28;20341;-65
2022/11/16 01:19:31;;;;;;;21.08;17.67;;;;;;;10.11;100.00;99669.13;4948921;28;20134;-65
2022/11/16 01:21:57;;;;;;;20.27;16.30;;;;;;;10.11;100.00;99669.13;4948854;28;20035;-65
2022/11/16 01:24:24;;;;;;;17.83;15.95;;;;;;;10.12;100.00;99667.41;4947839;28;20117;-65
2022/11/16 01:26:49;;;;;;;17.27;15.55;;;;;;;10.12;100.00;99670.00;4961410;28;20487;-65
2022/11/16 01:29:15;;;;;;;18.42;16.52;;;;;;;10.12;100.00;99670.00;4955430;28;20110;-65
2022/11/16 01:31:40;;;;;;;18.25;16.35;;;;;;;10.11;100.00;99669.13;4954212;28;20194;-65
2022/11/16 01:34:06;;;;;;;17.95;15.40;;;;;;;10.11;100.00;99665.69;4952098;28;20419;-65
2022/11/16 01:36:32;;;;;;;18.80;15.93;;;;;;;10.12;100.00;99659.66;4952597;28;20054;-65
2022/11/16 01:38:57;;;;;;;19.95;15.85;;;;;;;10.12;100.00;99659.66;4952481;28;20768;-65
2022/11/16 01:41:24;;;;;;;18.13;16.23;;;;;;;10.13;100.00;99656.22;4952655;28;20078;-65
2022/11/16 01:43:57;;;;;;;22.33;17.25;;;;;;;10.13;100.00;99661.41;4952586;28;20499;-65
2022/11/16 01:46:24;;;;;;;20.10;16.95;;;;;;;10.12;100.00;99651.88;4953191;28;20074;-65
2022/11/16 01:49:01;;;;;;;19.58;17.50;;;;;;;10.11;100.00;99653.59;4952834;28;20028;-65
2022/11/16 01:51:27;;;;;;;19.98;17.30;;;;;;;10.13;100.00;99648.47;4957012;28;20026;-65
2022/11/16 01:53:52;;;;;;;20.00;16.67;;;;;;;10.12;100.00;99654.47;4961306;28;20027;-65
2022/11/16 01:56:20;;;;;;;20.75;18.58;;;;;;;10.13;100.00;99653.66;4952107;28;20027;-65
2022/11/16 01:58:45;;;;;;;21.33;19.17;;;;;;;10.13;100.00;99659.66;4952037;28;20507;-65
2022/11/16 02:01:11;;;;;;;21.42;18.23;;;;;;;10.13;100.00;99648.47;4952077;28;20031;-65
2022/11/16 02:03:37;;;;;;;20.67;18.05;;;;;;;10.13;100.00;99645.88;4952102;28;20030;-65
2022/11/16 02:06:12;;;;;;;24.10;18.80;;;;;;;10.13;100.00;99643.28;4952795;28;20027;-65
2022/11/16 02:11:51;;;;;;;21.33;18.33;;;;;;;10.14;100.00;99655.38;4952271;28;20070;-65
2022/11/16 02:14:32;;;;;;;21.15;18.90;;;;;;;10.13;100.00;99638.13;4951922;28;20440;-65
2022/11/16 02:17:27;;;;;;;21.63;17.98;;;;;;;10.13;100.00;99638.13;4976530;28;20391;-65
2022/11/16 02:20:08;;;;;;;21.70;17.95;;;;;;;10.14;100.00;99642.44;4952070;28;20035;-65
2022/11/16 02:22:48;;;;;;;19.35;17.33;;;;;;;10.13;100.00;99641.56;4951106;28;20451;-65
2022/11/16 02:25:34;;;;;;;22.73;19.17;;;;;;;10.14;100.00;99642.44;4951510;28;20387;-65
2022/11/16 02:28:36;;;;;;;19.83;17.60;;;;;;;10.15;100.00;99639.84;4952098;28;20034;-65
2022/11/16 02:31:06;;;;;;;19.38;17.35;;;;;;;10.17;100.00;99639.88;4951152;28;20037;-65
2022/11/16 02:33:36;;;;;;;19.38;17.35;;;;;;;10.17;100.00;99632.09;4951322;28;20518;-65
2022/11/16 02:36:04;;;;;;;19.70;17.65;;;;;;;10.18;100.00;99629.53;4950619;28;20039;-65
2022/11/16 02:38:41;;;;;;;20.60;17.60;;;;;;;10.19;100.00;99630.41;4954359;28;20039;-65
2022/11/16 02:41:11;;;;;;;18.13;15.73;;;;;;;10.19;100.00;99640.78;4952952;28;20023;-65
2022/11/16 02:43:41;;;;;;;20.40;16.85;;;;;;;10.19;100.00;99633.00;4955377;28;20030;-65
2022/11/16 02:46:12;;;;;;;19.77;17.65;;;;;;;10.20;100.00;99639.91;4956025;28;20102;-65
2022/11/16 02:48:43;;;;;;;20.13;17.98;;;;;;;10.22;100.00;99651.16;4974908;28;20044;-65
2022/11/16 02:51:09;;;;;;;20.05;16.38;;;;;;;10.22;100.00;99658.94;4962800;28;20019;-65
2022/11/16 02:53:50;;;;;;;19.55;17.25;;;;;;;10.20;100.00;99647.69;4951006;28;20215;-65
2022/11/16 02:56:16;;;;;;;17.40;15.60;;;;;;;10.23;100.00;99660.69;4950643;28;20439;-65
2022/11/16 02:58:41;;;;;;;15.30;13.57;;;;;;;10.23;100.00;99663.28;4974734;28;20278;-65
2022/11/16 03:01:20;;;;;;;13.77;12.48;;;;;;;10.22;100.00;99661.53;4954092;28;20027;-65
2022/11/16 03:03:54;;;;;;;14.13;12.30;;;;;;;10.22;100.00;99661.53;4968454;28;20106;-65
2022/11/16 03:06:27;;;;;;;13.95;12.07;;;;;;;10.21;100.00;99649.44;4953012;28;20027;-65
2022/11/16 03:09:01;;;;;;;12.25;10.95;;;;;;;10.20;100.00;99655.44;4965343;28;20084;-65
2022/11/16 03:14:16;;;;;;;11.13;9.27;;;;;;;10.11;100.00;99643.25;4975386;28;20038;-65
2022/11/16 03:16:46;;;;;;;10.38;9.38;;;;;;;10.06;100.00;99642.31;4950225;28;20512;-65
2022/11/16 03:19:16;;;;;;;9.93;8.50;;;;;;;10.06;100.00;99644.88;4959221;28;20113;-65
2022/11/16 03:21:50;;;;;;;11.95;9.40;;;;;;;10.01;100.00;99656.91;4963128;28;20031;-65
2022/11/16 03:24:16;;;;;;;9.63;8.65;;;;;;;10.01;100.00;99672.41;4949685;28;20027;-65
2022/11/16 03:26:46;;;;;;;9.38;8.27;;;;;;;9.98;100.00;99662.91;4974725;28;20398;-65
2022/11/16 03:29:31;;;;;;;7.65;6.95;;;;;;;9.91;100.00;99658.47;4949464;28;20031;-65
2022/11/16 03:32:21;;;;;;;7.13;6.13;;;;;;;9.90;100.00;99664.50;4965833;28;20022;-65
2022/11/16 03:35:15;;;;;;;8.43;6.95;;;;;;;9.85;100.00;99664.44;4972938;28;20057;-65
2022/11/16 03:37:43;;;;;;;6.60;5.97;;;;;;;9.81;100.00;99666.09;4948845;28;20059;-65
2022/11/16 03:40:10;;;;;;;6.18;5.55;;;;;;;9.79;100.00;99670.38;4956446;28;20103;-65
2022/11/16 03:42:37;;;;;;;5.85;5.32;;;;;;;9.76;100.00;99667.75;4969897;28;20030;-65
2022/11/16 03:45:03;;;;;;;6.95;6.10;;;;;;;9.73;100.00;99673.72;4949296;28;20470;-65
2022/11/16 03:47:29;;;;;;;10.75;7.50;;;;;;;9.74;100.00;99674.59;4958460;28;20071;-65
2022/11/16 03:49:54;;;;;;;7.65;6.60;;;;;;;9.72;100.00;99686.63;4961835;28;20114;-65
2022/11/16 03:52:19;;;;;;;7.53;6.63;;;;;;;9.71;100.00;99690.06;4963066;28;20027;-65
2022/11/16 03:54:45;;;;;;;7.15;6.45;;;;;;;9.68;100.00;99690.00;4953348;28;20026;-65
2022/11/16 03:57:14;;;;;;;6.47;5.30;;;;;;;9.65;100.00;99697.72;4963974;28;20027;-65
2022/11/16 03:59:42;;;;;;;7.65;5.43;;;;;;;9.63;100.00;99696.81;4960648;28;20027;-65
2022/11/16 04:02:07;;;;;;;7.47;5.80;;;;;;;9.61;100.00;99704.53;4954335;28;20037;-65
2022/11/16 04:28:12;;;;;;;4.70;3.30;;;;;;;9.33;100.00;99702.34;4948273;28;20109;-65
2022/11/16 04:29:12;;;;;;;4.20;3.70;;;;;;;9.33;100.00;99702.34;4966866;28;20491;-65
2022/11/16 04:37:47;;;;;;;4.32;3.33;;;;;;;9.30;100.00;99707.44;4948175;28;20031;-65
2022/11/16 04:39:56;;;;;;;4.95;3.42;;;;;;;9.26;100.00;99703.06;4971201;28;20038;-65
2022/11/16 04:42:21;;;;;;;5.88;3.22;;;;;;;9.27;100.00;99715.13;4949532;28;20483;-65
2022/11/16 04:47:31;;;;;;;7.15;3.70;;;;;;;9.24;100.00;99720.25;4949172;28;20102;-65
2022/11/16 04:49:56;;;;;;;4.65;3.60;;;;;;;9.23;100.00;99728.84;4949171;28;20027;-65
2022/11/16 04:52:21;;;;;;;5.95;3.45;;;;;;;9.20;100.00;99728.78;4968730;28;20035;-65
2022/11/16 04:54:47;;;;;;;5.00;3.55;;;;;;;9.17;100.00;99732.19;4949199;28;20368;-65
2022/11/16 04:57:12;;;;;;;4.88;3.38;;;;;;;9.15;100.00;99740.75;4952991;28;20093;-65
2022/11/16 04:59:37;;;;;;;6.18;4.10;;;;;;;9.08;100.00;99743.22;4961223;28;20031;-65
2022/11/16 05:02:09;;;;;;;4.80;3.80;;;;;;;9.08;100.00;99745.81;4948704;28;20494;-65
2022/11/16 05:04:39;;;;;;;6.60;4.70;;;;;;;9.10;100.00;99743.25;4949533;28;20529;-65
2022/11/16 05:07:09;;;;;;;6.78;3.92;;;;;;;9.07;100.00;99744.03;4949758;28;20121;-65
2022/11/16 05:09:40;;;;;;;8.30;4.10;;;;;;;9.05;100.00;99732.81;4955112;28;20386;-65
2022/11/16 05:12:06;;;;;;;7.22;4.05;;;;;;;9.05;100.00;99740.56;4960767;28;20022;-65
2022/11/16 05:14:31;;;;;;;6.38;4.32;;;;;;;9.05;100.00;99743.13;4955526;28;20039;-65
2022/11/16 05:16:57;;;;;;;7.13;3.88;;;;;;;9.01;100.00;99743.94;4955123;28;20511;-65
2022/11/16 05:22:06;;;;;;;5.55;3.22;;;;;;;8.97;100.00;99747.28;4954799;28;20548;-65
2022/11/16 05:24:34;;;;;;;7.53;4.35;;;;;;;8.96;100.00;99746.41;4955475;28;20031;-65
2022/11/16 05:27:07;;;;;;;5.78;3.15;;;;;;;8.95;100.00;99751.53;4955084;28;20451;-65
2022/11/16 05:29:33;;;;;;;13.10;4.18;;;;;;;8.92;100.00;99747.19;4955345;28;20497;-65
2022/11/16 05:31:59;;;;;;;6.95;3.88;;;;;;;8.90;100.00;99741.13;4955366;28;20030;-65
2022/11/16 05:34:24;;;;;;;4.60;3.72;;;;;;;8.87;100.00;99741.91;4954087;28;20491;-65
2022/11/16 05:36:49;;;;;;;6.43;4.05;;;;;;;8.84;100.00;99748.72;4955930;28;20458;-65
2022/11/16 05:39:15;;;;;;;6.60;3.72;;;;;;;8.81;100.00;99740.91;4954639;28;20031;-65
2022/11/16 05:41:40;;;;;;;7.60;4.35;;;;;;;8.77;100.00;99739.97;4954762;28;20078;-65
2022/11/16 05:44:06;;;;;;;11.52;4.60;;;;;;;8.72;100.00;99741.59;4955280;28;20378;-65
2022/11/16 05:46:31;;;;;;;6.78;4.72;;;;;;;8.69;100.00;99731.19;4954885;28;20075;-65
2022/11/16 05:48:56;;;;;;;9.35;4.40;;;;;;;8.68;100.00;99737.19;4955160;28;20027;-65
2022/11/16 05:51:21;;;;;;;10.13;3.58;;;;;;;8.65;100.00;99743.16;4953891;28;20027;-65
2022/11/16 05:53:48;;;;;;;10.07;4.75;;;;;;;8.61;100.00;99744.81;4954334;28;20062;-65
2022/11/16 05:56:14;;;;;;;7.13;4.25;;;;;;;8.55;100.00;99743.75;4954988;28;20141;-65
2022/11/16 05:58:41;;;;;;;7.95;4.22;;;;;;;8.50;100.00;99744.53;4954797;28;20110;-65
2022/11/16 06:01:06;;;;;;;10.18;4.75;;;;;;;8.46;100.00;99754.72;4955029;28;20031;-65
2022/11/16 06:03:32;;;;;;;5.35;4.18;;;;;;;8.43;100.00;99760.72;4955273;28;20038;-65
2022/11/16 06:05:57;;;;;;;7.97;4.35;;;;;;;8.40;100.00;99760.66;4954604;28;20099;-65
2022/11/16 06:08:23;;;;;;;8.82;4.45;;;;;;;8.35;100.00;99757.06;4958959;28;20126;-65
2022/11/16 06:10:48;;;;;;;5.72;4.35;;;;;;;8.31;100.00;99763.84;4956857;28;20031;-65
2022/11/16 06:13:14;;;;;;;7.53;4.68;;;;;;;8.27;100.00;99765.50;4963898;28;20023;-65
2022/11/16 06:15:39;;;;;;;7.18;4.50;;;;;;;8.24;100.00;99765.44;4970433;28;20067;-65
2022/11/16 06:18:06;;;;;;;6.90;4.55;;;;;;;8.20;100.00;99767.91;4956196;28;20046;-65
2022/11/16 06:20:33;;;;;;;7.47;4.90;;;;;;;8.18;100.00;99773.03;4968032;28;20054;-65
2022/11/16 06:22:59;;;;;;;11.18;5.25;;;;;;;8.14;100.00;99769.50;4962607;28;20031;-65
2022/11/16 06:25:24;;;;;;;7.20;5.18;;;;;;;8.11;100.00;99768.56;4958821;28;20043;-65
2022/11/16 06:27:49;;;;;;;7.40;5.47;;;;;;;8.08;100.00;99773.66;4957866;28;20035;-65
2022/11/16 06:30:15;;;;;;;8.73;5.72;;;;;;;8.05;100.00;99774.44;4955409;28;20027;-65
2022/11/16 06:32:40;;;;;;;10.65;5.65;;;;;;;8.00;100.00;99776.03;4959718;28;20033;-65
2022/11/16 06:35:06;;;;;;;9.45;5.53;;;;;;;7.98;100.00;99788.00;4966809;28;20082;-65
2022/11/16 06:37:31;;;;;;;8.60;4.68;;;;;;;7.95;100.00;99795.66;4952448;28;20375;-65
2022/11/16 06:39:57;;;;;;;7.05;5.28;;;;;;;7.92;100.00;99799.91;4950716;28;20042;-65
2022/11/16 06:42:22;;;;;;;8.20;5.38;;;;;;;7.89;100.00;99794.69;4950770;28;20039;-65
2022/11/16 06:44:47;;;;;;;7.63;5.40;;;;;;;7.87;100.00;99793.75;4963995;28;20037;-65
2022/11/16 06:47:13;;;;;;;10.07;5.35;;;;;;;7.89;100.00;99792.09;4950898;28;20077;-65
2022/11/16 06:49:38;;;;;;;12.05;5.63;;;;;;;7.87;100.00;99796.34;4971235;28;20045;-65
2022/11/16 06:52:03;;;;;;;10.65;5.25;;;;;;;7.85;100.00;99803.16;4972449;28;20034;-65
2022/11/16 06:54:29;;;;;;;8.25;5.32;;;;;;;7.81;100.00;99802.22;4947336;28;20546;-65
2022/11/16 06:56:54;;;;;;;11.35;5.63;;;;;;;7.83;100.00;99809.97;4948052;28;20037;-65
2022/11/16 06:59:19;;;;;;;8.07;5.53;;;;;;;7.80;100.00;99818.53;4949072;28;20023;-65
2022/11/16 07:01:45;;;;;;;9.48;5.38;;;;;;;7.77;100.00;99813.25;4950852;28;20027;-65
2022/11/16 07:04:10;;;;;;;10.25;5.63;;;;;;;7.76;100.00;99815.81;4950443;28;20386;-65
2022/11/16 07:06:37;;;;;;;7.97;5.78;;;;;;;7.73;100.00;99808.00;4950479;28;20034;-65
2022/11/16 07:09:05;;;;;;;11.68;6.15;;;;;;;7.73;100.00;99805.41;4951277;28;20015;-65
2022/11/16 07:11:30;;;;;;;11.40;5.82;;;;;;;7.71;100.00;99809.66;4951075;28;20026;-65
2022/11/16 07:13:55;;;;;;;11.90;6.82;;;;;;;7.73;100.00;99813.16;4950407;28;20030;-65
2022/11/16 07:16:21;;;;;;;10.57;5.55;;;;;;;7.72;100.00;99816.56;4950453;28;20038;-65
2022/11/16 07:18:46;;;;;;;10.32;7.53;;;;;;;7.69;100.00;99820.81;4950895;28;20433;-65
2022/11/16 07:21:14;;;;;;;12.15;7.43;;;;;;;7.69;100.00;99817.34;4951401;28;20055;-65
2022/11/16 07:23:40;;;;;;;12.40;7.32;;;;;;;7.67;100.00;99819.00;4950937;28;20038;-65
2022/11/16 07:26:07;;;;;;;15.25;8.98;;;;;;;7.66;100.00;99819.84;4974109;28;20463;-65
2022/11/16 07:28:33;;;;;;;14.25;8.23;;;;;;;7.65;100.00;99829.28;4950350;28;20039;-65
2022/11/16 07:31:06;;;;;;;12.93;9.00;;;;;;;7.64;100.00;99835.28;4974289;28;20065;-67
2022/11/16 07:33:31;;;;;;;14.18;8.50;;;;;;;7.62;100.00;99842.09;4950509;28;20031;-66
2022/11/16 07:36:01;;;;;;;12.45;8.05;;;;;;;7.62;100.00;99844.69;4950672;28;20087;-66
2022/11/16 07:38:27;;;;;;;14.18;8.23;;;;;;;7.61;100.00;99849.78;4950670;28;20096;-66
2022/11/16 07:40:52;;;;;;;9.98;7.80;;;;;;;7.62;100.00;99855.00;4950689;28;20027;-66
2022/11/16 07:43:17;;;;;;;12.63;7.25;;;;;;;7.62;100.00;99857.56;4950716;28;20023;-67
2022/11/16 07:45:43;;;;;;;15.20;8.10;;;;;;;7.63;100.00;99855.84;4950729;28;20027;-66
2022/11/16 07:48:08;;;;;;;12.60;7.95;;;;;;;7.64;100.00;99847.28;4950420;28;20059;-66
2022/11/16 07:50:34;;;;;;;11.30;6.47;;;;;;;7.63;100.00;99851.56;4950526;28;20085;-66
2022/11/16 07:53:00;;;;;;;13.48;7.43;;;;;;;7.62;100.00;99855.00;4950110;28;20057;-66
2022/11/16 07:55:30;;;;;;;11.75;6.53;;;;;;;7.64;100.00;99861.06;4962857;28;20507;-66
2022/11/16 07:57:56;;;;;;;13.80;6.05;;;;;;;7.65;100.00;99852.50;4968060;28;20063;-66
2022/11/16 08:00:23;;;;;;;13.27;5.55;;;;;;;7.66;100.00;99854.22;4956607;28;20031;-66
2022/11/16 08:02:48;;;;;;;10.00;5.10;;;;;;;7.67;100.00;99860.28;4950076;28;20367;-66
2022/11/16 08:05:14;;;;;;;11.77;4.95;;;;;;;7.68;100.00;99869.78;4949263;28;20030;-66
2022/11/16 08:07:39;;;;;;;7.78;4.32;;;;;;;7.69;100.00;99864.66;4963116;28;20588;-67
2022/11/16 08:10:05;;;;;;;9.50;4.82;;;;;;;7.71;100.00;99866.38;4949850;28;20415;-66
2022/11/16 08:12:30;;;;;;;11.25;4.88;;;;;;;7.73;100.00;99867.31;4949950;28;20085;-66
2022/11/16 08:14:55;;;;;;;14.00;4.78;;;;;;;7.75;100.00;99868.22;4972863;28;20168;-67
2022/11/16 08:17:21;;;;;;;14.60;5.07;;;;;;;7.77;100.00;99866.56;4975911;28;20574;-66
2022/11/16 08:19:46;;;;;;;8.63;4.25;;;;;;;7.79;100.00;99864.88;4970570;28;20037;-66
2022/11/16 08:22:11;;;;;;;10.95;4.43;;;;;;;7.84;100.00;99863.34;4950524;28;20023;-66
2022/11/16 08:24:37;;;;;;;10.80;4.30;;;;;;;7.92;100.00;99866.09;4950137;28;20023;-66
2022/11/16 08:27:02;;;;;;;11.55;4.38;;;;;;;7.96;100.00;99873.09;4949474;28;20403;-65
2022/11/16 08:29:28;;;;;;;9.43;3.40;;;;;;;7.98;100.00;99867.97;4959575;28;20042;-66
2022/11/16 08:31:53;;;;;;;12.02;3.40;;;;;;;8.02;100.00;99864.66;4949428;28;20027;-66
2022/11/16 08:34:19;;;;;;;8.02;3.47;;;;;;;8.01;100.00;99865.47;4949670;28;20122;-67
2022/11/16 08:36:44;;;;;;;10.73;4.03;;;;;;;8.01;100.00;99866.38;4949100;28;20054;-66
2022/11/16 08:39:10;;;;;;;11.50;3.95;;;;;;;8.02;100.00;99875.84;4949771;28;20039;-66
2022/11/16 08:41:36;;;;;;;8.35;3.33;;;;;;;8.02;100.00;99868.09;4948581;28;20038;-66
2022/11/16 08:44:02;;;;;;;10.73;3.47;;;;;;;8.05;100.00;99869.91;4949049;28;20046;-67
2022/11/16 08:46:28;;;;;;;12.32;3.13;;;;;;;8.04;100.00;99870.75;4949541;28;20051;-66
2022/11/16 08:48:55;;;;;;;12.15;3.55;;;;;;;8.03;100.00;99869.88;4949169;28;20058;-66
2022/11/16 08:51:21;;;;;;;12.63;2.80;;;;;;;8.04;100.00;99879.34;4949277;28;20220;-66
2022/11/16 08:53:47;;;;;;;12.32;3.92;;;;;;;8.06;100.00;99879.38;4948950;28;20375;-66
2022/11/16 08:56:13;;;;;;;8.90;2.90;;;;;;;8.07;100.00;99886.31;4949769;28;20035;-66
2022/11/16 08:58:42;;;;;;;11.05;2.85;;;;;;;8.09;100.00;99887.22;4956529;28;20387;-66
2022/11/16 09:01:09;;;;;;;6.47;2.35;;;;;;;8.11;100.00;99888.13;4953807;28;20034;-66
2022/11/16 09:03:36;;;;;;;6.25;2.20;;;;;;;8.12;100.00;99889.88;4952454;28;20564;-66
2022/11/16 09:06:02;;;;;;;9.35;2.50;;;;;;;8.13;100.00;99886.44;4956265;28;20066;-66
2022/11/16 09:08:27;;;;;;;12.73;2.50;;;;;;;8.16;100.00;99893.41;4949277;28;20058;-67
2022/11/16 09:10:52;;;;;;;9.85;3.45;;;;;;;8.18;100.00;99891.75;4949066;28;20549;-66
2022/11/16 09:13:17;;;;;;;8.25;2.60;;;;;;;8.20;100.00;99890.09;4949235;28;20535;-66
2022/11/16 09:15:43;;;;;;;6.30;2.70;;;;;;;8.25;100.00;99890.19;4974336;28;20035;-67
2022/11/16 09:18:09;;;;;;;5.05;1.90;;;;;;;8.26;100.00;99882.50;4949488;28;20041;-67
2022/11/16 09:20:34;;;;;;;8.75;2.58;;;;;;;8.29;100.00;99879.97;4948524;28;20036;-67
2022/11/16 09:22:59;;;;;;;10.57;2.78;;;;;;;8.33;100.00;99893.00;4948884;28;20059;-66
2022/11/16 09:25:25;;;;;;;10.13;2.65;;;;;;;8.36;100.00;99891.38;4949030;28;20135;-67
2022/11/16 09:27:50;;;;;;;6.88;2.60;;;;;;;8.36;100.00;99896.53;4948719;28;20054;-67
2022/11/16 09:30:17;;;;;;;9.13;1.83;;;;;;;8.40;100.00;99900.91;4948937;28;20090;-66
2022/11/16 09:32:42;;;;;;;6.43;2.67;;;;;;;8.44;100.00;99898.44;4972434;28;20533;-67
2022/11/16 09:35:08;;;;;;;9.18;2.35;;;;;;;8.47;100.00;99895.94;4949130;28;20027;-67
2022/11/16 09:37:33;;;;;;;7.53;2.15;;;;;;;8.51;100.00;99897.72;4949529;28;20046;-67
2022/11/16 09:39:58;;;;;;;6.00;2.10;;;;;;;8.52;100.00;99902.09;4949170;28;20173;-67
2022/11/16 09:42:57;;;;;;;8.82;3.08;;;;;;;8.56;100.00;99901.38;4948915;28;20027;-67
2022/11/16 09:45:38;;;;;;;12.32;3.20;;;;;;;8.60;100.00;99900.59;4956122;28;20518;-66
2022/11/16 09:48:05;;;;;;;13.95;2.45;;;;;;;8.64;100.00;99899.84;4949271;28;20039;-66
2022/11/16 09:50:40;;;;;;;9.70;2.00;;;;;;;8.65;100.00;99901.56;4948874;28;20046;-67
2022/11/16 09:53:29;;;;;;;9.40;2.10;;;;;;;8.68;100.00;99905.94;4949290;28;20028;-67
2022/11/16 09:56:09;;;;;;;9.65;2.72;;;;;;;8.72;100.00;99912.06;4952464;28;20031;-66
2022/11/16 09:58:53;;;;;;;7.72;1.88;;;;;;;8.74;100.00;99907.81;4952364;28;20114;-66
2022/11/16 10:01:24;;;;;;;8.68;2.22;;;;;;;8.75;100.00;99907.84;4952868;28;20037;-66
2022/11/16 10:03:58;;;;;;;13.32;3.33;;;;;;;8.79;100.00;99908.81;4951667;28;20027;-66
2022/11/16 10:06:36;;;;;;;5.40;1.42;;;;;;;8.79;100.00;99908.81;4952742;28;20042;-67
2022/11/16 10:09:02;;;;;;;11.07;1.92;;;;;;;8.82;100.00;99908.88;4952701;28;20043;-67
2022/11/16 10:11:59;;;;;;;6.25;1.80;;;;;;;8.85;100.00;99903.78;4952437;28;20063;-67
2022/11/16 10:14:52;;;;;;;5.32;1.45;;;;;;;8.89;100.00;99909.88;4953753;28;20038;-66
2022/11/16 10:17:23;;;;;;;6.38;1.60;;;;;;;8.93;100.00;99906.53;4975816;28;20023;-66
2022/11/16 10:20:08;;;;;;;7.72;2.33;;;;;;;8.98;100.00;99904.06;4952123;28;20485;-66
2022/11/16 10:22:44;;;;;;;6.00;1.50;;;;;;;9.02;100.00;99908.47;4951714;28;20027;-66
2022/11/16 10:25:19;;;;;;;7.82;2.13;;;;;;;9.05;100.00;99905.94;4953054;28;20542;-67
2022/11/16 10:27:55;;;;;;;7.05;1.60;;;;;;;9.08;100.00;99900.88;4951698;28;20070;-66
2022/11/16 10:30:21;;;;;;;6.93;2.53;;;;;;;9.10;100.00;99898.31;4961289;28;20027;-66
2022/11/16 10:33:09;;;;;;;5.15;1.58;;;;;;;9.13;100.00;99899.28;4954587;28;20364;-67
2022/11/16 10:35:39;;;;;;;10.63;1.75;;;;;;;9.17;100.00;99900.22;4952490;28;20400;-66
2022/11/16 10:38:13;;;;;;;5.95;1.60;;;;;;;9.21;100.00;99896.00;4964988;28;20391;-66
2022/11/16 10:40:39;;;;;;;6.47;1.75;;;;;;;9.24;100.00;99901.22;4951786;28;20031;-66
2022/11/16 10:43:15;;;;;;;5.35;1.75;;;;;;;9.27;100.00;99895.22;4952968;28;20448;-67
2022/11/16 10:45:50;;;;;;;6.15;1.90;;;;;;;9.30;100.00;99897.91;4951817;28;20151;-67
2022/11/16 10:48:41;;;;;;;9.52;1.88;;;;;;;9.33;100.00;99901.44;4951513;28;20574;-66
2022/11/16 10:51:08;;;;;;;7.53;1.20;;;;;;;9.37;100.00;99902.38;4951664;28;20031;-66
2022/11/16 10:53:42;;;;;;;8.25;1.38;;;;;;;9.41;100.00;99899.00;4951276;28;20027;-66
2022/11/16 10:56:18;;;;;;;6.60;1.42;;;;;;;9.45;100.00;99894.75;4972471;28;20019;-67
2022/11/16 10:58:54;;;;;;;7.22;1.42;;;;;;;9.52;100.00;99890.59;4954863;28;20568;-66
2022/11/16 11:01:39;;;;;;;4.55;1.70;;;;;;;9.58;100.00;99901.06;4951323;28;20038;-66
2022/11/16 11:04:19;;;;;;;7.93;1.40;;;;;;;9.63;100.00;99898.56;4951381;28;20415;-66
2022/11/16 11:06:47;;;;;;;6.07;1.15;;;;;;;9.68;100.00;99902.13;4963383;28;20034;-66
2022/11/16 11:09:30;;;;;;;7.55;1.67;;;;;;;9.70;100.00;99898.75;4951448;28;20102;-67
2022/11/16 11:15:10;;;;;;;4.63;1.05;;;;;;;9.78;100.00;99885.97;4974305;28;20037;-67
2022/11/16 11:17:41;;;;;;;4.88;0.95;;;;;;;9.81;100.00;99883.44;4967062;28;20035;-66
2022/11/16 11:20:20;;;;;;;6.53;1.20;;;;;;;9.85;100.00;99885.25;4957538;28;20034;-67
2022/11/16 11:22:58;;;;;;;4.20;1.30;;;;;;;9.91;100.00;99893.97;4959571;28;20018;-66
2022/11/16 11:25:29;;;;;;;8.35;1.20;;;;;;;9.97;100.00;99887.19;4951262;28;20058;-66
2022/11/16 11:28:16;;;;;;;3.58;1.05;;;;;;;9.99;100.00;99882.03;4950634;28;20031;-66
2022/11/16 11:31:02;;;;;;;11.55;1.60;;;;;;;9.97;100.00;99884.59;4950782;28;20027;-67
2022/11/16 11:33:31;;;;;;;5.97;1.20;;;;;;;9.97;100.00;99884.59;4950944;28;20039;-66
2022/11/16 11:36:20;;;;;;;7.68;1.17;;;;;;;9.95;100.00;99875.94;4950175;28;20074;-67
2022/11/16 11:39:02;;;;;;;3.60;1.33;;;;;;;9.93;100.00;99875.03;4950782;28;20035;-66
2022/11/16 11:41:33;;;;;;;6.15;1.65;;;;;;;9.91;100.00;99870.69;4950555;28;20035;-66
2022/11/16 11:44:22;;;;;;;6.25;1.92;;;;;;;9.93;100.00;99876.78;4950296;28;20051;-65
2022/11/16 11:46:50;;;;;;;6.43;1.33;;;;;;;9.90;100.00;99866.34;4949831;28;20065;-66
2022/11/16 11:49:26;;;;;;;5.15;0.93;;;;;;;9.89;100.00;99862.00;4950607;28;20023;-66
2022/11/16 11:51:55;;;;;;;5.03;1.13;;;;;;;9.89;100.00;99867.19;4950696;28;20369;-67
2022/11/16 11:54:30;;;;;;;6.05;1.83;;;;;;;9.91;100.00;99860.34;4951344;28;20028;-66
2022/11/16 11:56:56;;;;;;;5.20;1.30;;;;;;;9.89;100.00;99862.00;4950344;28;20038;-66
2022/11/16 11:59:25;;;;;;;7.82;1.30;;;;;;;9.89;100.00;99854.25;4949837;28;20106;-66
2022/11/16 12:01:56;;;;;;;7.30;1.35;;;;;;;9.95;100.00;99849.19;4951414;28;20034;-66
2022/11/16 12:04:50;;;;;;;5.50;2.35;;;;;;;10.16;100.00;99847.84;4959023;28;20483;-66
2022/11/16 12:07:55;;;;;;;7.50;1.17;;;;;;;10.37;100.00;99841.28;4953078;28;20472;-65
2022/11/16 12:10:40;;;;;;;8.65;1.45;;;;;;;10.49;100.00;99846.69;4949959;28;20486;-65
2022/11/16 12:13:33;;;;;;;5.03;1.50;;;;;;;10.61;100.00;99845.16;4949965;28;20178;-66
2022/11/16 12:16:06;;;;;;;6.15;1.17;;;;;;;10.74;100.00;99841.91;4966067;28;20526;-66
2022/11/16 12:18:41;;;;;;;4.68;1.48;;;;;;;10.80;100.00;99830.75;4951726;28;20475;-66